Time;durP1;ratioP1;P1;durP2;ratioP2;P2;SDS_P1;SDS_P2;PMS_P1;PMS_P2;Temp;Humidity;BMP_temperature;BMP_pressure;BME280_temperature;BME280_humidity;BME280_pressure;Samples;Min_cycle;Max_cycle;Signal;HPM_P1;HPM_P2
2023/06/24 00:00:59;;;;;;;20.45;16.02;;;15.00;99.90;;;;;;5070672;28;20028;-56
2023/06/24 00:03:25;;;;;;;22.42;16.33;;;15.00;99.90;;;;;;5070557;28;20033;-56
2023/06/24 00:05:50;;;;;;;22.52;16.02;;;15.00;99.90;;;;;;5069893;28;20029;-56
2023/06/24 00:08:21;;;;;;;18.30;15.40;;;14.90;99.90;;;;;;5070294;28;20024;-55
2023/06/24 00:10:46;;;;;;;22.20;14.20;;;14.90;99.90;;;;;;5052493;28;20487;-55
2023/06/24 00:13:14;;;;;;;16.38;13.38;;;14.80;99.90;;;;;;5052205;28;20039;-54
2023/06/24 00:15:42;;;;;;;21.25;14.80;;;14.80;99.90;;;;;;5070033;28;20398;-55
2023/06/24 00:18:11;;;;;;;16.33;13.63;;;14.70;99.90;;;;;;5070211;28;20020;-55
2023/06/24 00:20:37;;;;;;;18.23;14.18;;;14.70;99.90;;;;;;5070348;28;20467;-55
2023/06/24 00:23:03;;;;;;;19.80;13.60;;;14.60;99.90;;;;;;5070235;28;20028;-55
2023/06/24 00:25:29;;;;;;;20.05;14.23;;;14.60;99.90;;;;;;5070475;28;20372;-55
2023/06/24 00:27:55;;;;;;;17.83;14.13;;;14.60;99.90;;;;;;5069653;28;20037;-54
2023/06/24 00:30:22;;;;;;;18.60;14.30;;;14.50;99.90;;;;;;5070114;28;20096;-54
2023/06/24 00:32:48;;;;;;;20.10;15.00;;;14.50;99.90;;;;;;5070276;28;20104;-55
2023/06/24 00:35:14;;;;;;;18.08;14.38;;;14.50;99.90;;;;;;5070237;28;20104;-55
2023/06/24 00:37:39;;;;;;;20.17;14.98;;;14.50;99.90;;;;;;5069552;28;20479;-55
2023/06/24 00:40:06;;;;;;;23.42;14.70;;;14.40;99.90;;;;;;5069764;28;20029;-54
2023/06/24 00:42:32;;;;;;;17.70;14.95;;;14.40;99.90;;;;;;5069809;28;20052;-55
2023/06/24 00:44:58;;;;;;;17.48;13.82;;;14.40;99.90;;;;;;5069807;28;20078;-54
2023/06/24 00:47:23;;;;;;;19.58;14.48;;;14.40;99.90;;;;;;5069236;28;20029;-55
2023/06/24 00:49:49;;;;;;;23.77;15.77;;;14.40;99.90;;;;;;5069913;28;20450;-55
2023/06/24 00:52:15;;;;;;;16.17;14.10;;;14.50;99.90;;;;;;5069804;28;20144;-57
2023/06/24 00:54:42;;;;;;;16.38;13.85;;;14.50;99.90;;;;;;5069892;28;20102;-57
2023/06/24 00:57:08;;;;;;;19.40;13.73;;;14.40;99.90;;;;;;5069971;28;20029;-57
2023/06/24 00:59:35;;;;;;;24.88;15.30;;;14.40;99.90;;;;;;5051671;28;20525;-57
2023/06/24 01:02:01;;;;;;;20.33;14.90;;;14.50;99.90;;;;;;5069867;28;20086;-57
2023/06/24 01:04:27;;;;;;;22.70;16.67;;;14.50;99.90;;;;;;5069587;28;20036;-55
2023/06/24 01:06:54;;;;;;;20.65;15.38;;;14.50;99.90;;;;;;5069877;28;20517;-55
2023/06/24 01:09:20;;;;;;;18.33;14.25;;;14.50;99.90;;;;;;5069705;28;20033;-55
2023/06/24 01:11:45;;;;;;;24.25;16.52;;;14.40;99.90;;;;;;5069583;28;20052;-55
2023/06/24 01:14:11;;;;;;;25.13;16.20;;;14.40;99.90;;;;;;5069217;28;20059;-56
2023/06/24 01:16:55;;;;;;;19.92;15.00;;;14.40;99.90;;;;;;5069078;28;20060;-55
2023/06/24 01:19:50;;;;;;;24.75;14.95;;;14.40;99.90;;;;;;5069821;28;20483;-57
2023/06/24 01:22:41;;;;;;;21.60;15.40;;;14.30;99.90;;;;;;5069428;28;20021;-55
2023/06/24 01:25:31;;;;;;;;;;;14.30;99.90;;;;;;5069867;28;20103;-55
2023/06/24 01:28:44;;;;;;;19.83;14.73;;;14.30;99.90;;;;;;5069279;28;19916;-56
2023/06/24 01:31:17;;;;;;;18.55;14.40;;;14.30;99.90;;;;;;5007221;28;20532;-56
2023/06/24 01:33:50;;;;;;;19.83;13.15;;;14.20;99.90;;;;;;5007100;28;20060;-55
2023/06/24 01:36:18;;;;;;;18.10;13.27;;;14.20;99.90;;;;;;5041786;28;20119;-55
2023/06/24 01:38:51;;;;;;;19.70;14.85;;;14.20;99.90;;;;;;5069189;28;20032;-55
2023/06/24 01:41:22;;;;;;;18.73;14.57;;;14.10;99.90;;;;;;5069318;28;20115;-56
2023/06/24 01:43:49;;;;;;;;;;;14.10;99.90;;;;;;5070168;28;20352;-56
2023/06/24 01:46:19;;;;;;;16.05;13.23;;;14.10;99.90;;;;;;5069105;28;19915;-55
2023/06/24 01:48:46;;;;;;;19.17;14.30;;;14.10;99.90;;;;;;5069184;28;20024;-55
2023/06/24 01:51:16;;;;;;;19.38;13.65;;;14.00;99.90;;;;;;5069052;28;20033;-55
2023/06/24 01:53:48;;;;;;;21.25;15.65;;;14.00;99.90;;;;;;5069112;28;20029;-55
2023/06/24 01:56:15;;;;;;;18.52;14.88;;;14.00;99.90;;;;;;5068986;28;20025;-55
2023/06/24 01:58:43;;;;;;;22.23;15.52;;;14.00;99.90;;;;;;5069015;28;20021;-55
2023/06/24 02:01:09;;;;;;;21.05;14.70;;;13.90;99.90;;;;;;5069345;28;20066;-54
2023/06/24 02:03:36;;;;;;;21.92;15.88;;;13.90;99.90;;;;;;5069105;28;20492;-56
2023/06/24 02:06:02;;;;;;;19.90;15.30;;;13.90;99.90;;;;;;5068751;28;20187;-55
2023/06/24 02:08:37;;;;;;;25.35;16.85;;;13.90;99.90;;;;;;5069021;28;20055;-54
2023/06/24 02:11:04;;;;;;;20.05;15.27;;;13.90;99.90;;;;;;5051098;28;20035;-55
2023/06/24 02:13:38;;;;;;;20.65;16.73;;;13.90;99.90;;;;;;5051276;28;20032;-56
2023/06/24 02:16:08;;;;;;;24.02;17.65;;;13.90;99.90;;;;;;5068742;28;20434;-55
2023/06/24 02:18:42;;;;;;;21.80;16.67;;;13.90;99.90;;;;;;5069046;28;20340;-56
2023/06/24 02:21:08;;;;;;;20.63;15.30;;;13.90;99.90;;;;;;5069047;28;20024;-55
2023/06/24 02:23:36;;;;;;;23.75;17.33;;;13.90;99.90;;;;;;5069043;28;20023;-55
2023/06/24 02:26:05;;;;;;;28.45;16.52;;;13.90;99.90;;;;;;5069762;28;20571;-55
2023/06/24 02:28:32;;;;;;;23.33;17.45;;;13.80;99.90;;;;;;5072543;28;20067;-55
2023/06/24 02:30:59;;;;;;;19.77;15.82;;;13.80;99.90;;;;;;5072617;28;20060;-55
2023/06/24 02:33:26;;;;;;;21.42;16.50;;;13.80;99.90;;;;;;5072310;28;20504;-55
2023/06/24 02:35:52;;;;;;;18.17;15.00;;;13.80;99.90;;;;;;5072079;28;20380;-56
2023/06/24 02:38:17;;;;;;;26.88;18.70;;;13.80;99.90;;;;;;5072212;28;20123;-56
2023/06/24 02:40:45;;;;;;;23.38;17.88;;;13.80;99.90;;;;;;5072117;28;20446;-55
2023/06/24 02:43:11;;;;;;;22.65;17.25;;;13.70;99.90;;;;;;5054114;28;20043;-54
2023/06/24 02:45:37;;;;;;;21.92;16.40;;;13.70;99.90;;;;;;5071592;28;20021;-54
2023/06/24 02:48:05;;;;;;;27.48;18.00;;;13.70;99.90;;;;;;5054010;28;20024;-54
2023/06/24 02:50:31;;;;;;;26.77;17.73;;;13.70;99.90;;;;;;5071874;28;20434;-54
2023/06/24 02:52:57;;;;;;;24.30;17.67;;;13.70;99.90;;;;;;5071945;28;20033;-54
2023/06/24 02:55:23;;;;;;;24.13;18.08;;;13.70;99.90;;;;;;5053668;28;20032;-54
2023/06/24 02:57:50;;;;;;;27.70;17.77;;;13.70;99.90;;;;;;5071544;28;20037;-55
2023/06/24 03:00:16;;;;;;;27.30;18.63;;;13.60;99.90;;;;;;5071805;28;20024;-55
2023/06/24 03:02:43;;;;;;;28.50;17.70;;;13.60;99.90;;;;;;5076168;28;20101;-55
2023/06/24 03:05:10;;;;;;;31.33;19.70;;;13.60;99.90;;;;;;5079393;28;20028;-54
2023/06/24 03:07:38;;;;;;;25.75;17.13;;;13.60;99.90;;;;;;5078888;28;20024;-56
2023/06/24 03:10:05;;;;;;;23.67;17.77;;;13.60;99.90;;;;;;5074707;28;20280;-55
2023/06/24 03:12:31;;;;;;;24.65;17.05;;;13.60;99.90;;;;;;5081178;28;20020;-54
2023/06/24 03:14:56;;;;;;;33.17;21.38;;;13.50;99.90;;;;;;5080109;28;20024;-54
2023/06/24 03:17:22;;;;;;;28.70;19.50;;;13.50;99.90;;;;;;5081516;28;20024;-54
2023/06/24 03:19:48;;;;;;;32.75;19.38;;;13.50;99.90;;;;;;5080705;28;20056;-55
2023/06/24 03:22:13;;;;;;;23.45;17.30;;;13.50;99.90;;;;;;5080391;28;20032;-54
2023/06/24 03:24:39;;;;;;;21.73;17.65;;;13.50;99.90;;;;;;5078910;28;20063;-54
2023/06/24 03:27:04;;;;;;;28.00;19.48;;;13.50;99.90;;;;;;5070059;28;20031;-55
2023/06/24 03:29:30;;;;;;;25.65;18.75;;;13.50;99.90;;;;;;5070640;28;20040;-54
2023/06/24 03:31:55;;;;;;;24.02;17.30;;;13.50;99.90;;;;;;5073428;28;20028;-55
2023/06/24 03:34:21;;;;;;;27.85;18.90;;;13.50;99.90;;;;;;5084311;28;20367;-55
2023/06/24 03:36:46;;;;;;;25.08;18.77;;;13.50;99.90;;;;;;5090219;28;20509;-54
2023/06/24 03:39:12;;;;;;;25.15;19.10;;;13.50;99.90;;;;;;5091297;28;20032;-54
2023/06/24 03:41:38;;;;;;;32.90;19.60;;;13.50;99.90;;;;;;5090894;28;20016;-55
2023/06/24 03:44:05;;;;;;;28.08;18.25;;;13.50;99.90;;;;;;5091141;28;20390;-55
2023/06/24 03:46:32;;;;;;;26.63;18.50;;;13.60;99.90;;;;;;5090502;28;20162;-55
2023/06/24 03:48:58;;;;;;;29.60;19.20;;;13.60;99.90;;;;;;5090837;28;20044;-55
2023/06/24 03:51:24;;;;;;;27.80;20.42;;;13.60;99.90;;;;;;5073951;28;20168;-55
2023/06/24 03:53:51;;;;;;;29.85;18.90;;;13.60;99.90;;;;;;5073264;28;20502;-54
2023/06/24 03:56:16;;;;;;;28.15;20.17;;;13.60;99.90;;;;;;5079487;28;20078;-55
2023/06/24 03:58:42;;;;;;;29.02;21.23;;;13.60;99.90;;;;;;5081521;28;20051;-55
2023/06/24 04:01:09;;;;;;;30.55;20.77;;;13.60;99.90;;;;;;5079911;28;20020;-54
2023/06/24 04:03:34;;;;;;;28.85;20.50;;;13.70;99.90;;;;;;5083991;28;20500;-55
2023/06/24 04:06:01;;;;;;;31.23;19.98;;;13.70;99.90;;;;;;5090215;28;20114;-55
2023/06/24 04:08:30;;;;;;;27.05;19.83;;;13.70;99.90;;;;;;5090926;28;20036;-56
2023/06/24 04:11:00;;;;;;;24.05;17.83;;;13.70;99.90;;;;;;5090769;28;20056;-58
2023/06/24 04:13:25;;;;;;;29.08;19.10;;;13.80;99.90;;;;;;5090661;28;20417;-56
2023/06/24 04:15:51;;;;;;;24.23;17.95;;;13.80;99.90;;;;;;5089940;28;20038;-54
2023/06/24 04:18:18;;;;;;;29.45;20.48;;;13.80;99.90;;;;;;5086792;28;20024;-55
2023/06/24 04:20:44;;;;;;;28.45;19.02;;;13.80;99.90;;;;;;5055508;28;20440;-55
2023/06/24 04:23:10;;;;;;;28.20;20.05;;;13.80;99.90;;;;;;5075372;28;20116;-55
2023/06/24 04:25:36;;;;;;;34.42;22.27;;;13.90;99.90;;;;;;5069542;28;20491;-55
2023/06/24 04:28:04;;;;;;;29.17;20.35;;;13.90;99.90;;;;;;5069904;28;20107;-54
2023/06/24 04:30:30;;;;;;;26.48;19.30;;;13.90;99.90;;;;;;5069721;28;20017;-54
2023/06/24 04:32:56;;;;;;;28.83;20.35;;;13.90;99.90;;;;;;5051696;28;20466;-54
2023/06/24 04:35:21;;;;;;;28.98;20.35;;;13.90;99.90;;;;;;5069814;28;20031;-54
2023/06/24 04:37:49;;;;;;;29.90;19.83;;;13.90;99.90;;;;;;5068502;28;20482;-54
2023/06/24 04:40:14;;;;;;;30.42;19.05;;;13.90;99.90;;;;;;5069558;28;20493;-54
2023/06/24 04:42:40;;;;;;;30.67;20.13;;;13.90;99.90;;;;;;5069702;28;20021;-55
2023/06/24 04:45:06;;;;;;;25.23;20.15;;;14.00;99.90;;;;;;5069702;28;20046;-54
2023/06/24 04:47:31;;;;;;;31.10;20.00;;;14.00;99.90;;;;;;5069346;28;20029;-54
2023/06/24 04:49:57;;;;;;;36.10;21.98;;;14.10;99.90;;;;;;5069373;28;20021;-54
2023/06/24 04:52:25;;;;;;;29.23;20.02;;;14.10;99.90;;;;;;5069664;28;20028;-54
2023/06/24 04:54:51;;;;;;;25.38;19.00;;;14.10;99.90;;;;;;5069594;28;20103;-54
2023/06/24 04:57:28;;;;;;;26.25;18.10;;;14.20;99.90;;;;;;5069377;28;20051;-55
2023/06/24 04:59:54;;;;;;;29.98;19.10;;;14.20;99.90;;;;;;5069736;28;20028;-54
2023/06/24 05:02:19;;;;;;;34.35;22.35;;;14.30;99.90;;;;;;5069487;28;20078;-56
2023/06/24 05:04:45;;;;;;;30.67;20.60;;;14.30;99.90;;;;;;5069259;28;20040;-56
2023/06/24 05:07:11;;;;;;;28.45;20.85;;;14.40;99.90;;;;;;5068982;28;20024;-54
2023/06/24 05:09:37;;;;;;;35.03;22.58;;;14.50;99.90;;;;;;5069275;28;20028;-54
2023/06/24 05:12:06;;;;;;;30.52;20.80;;;14.50;99.90;;;;;;5069477;28;20082;-55
2023/06/24 05:14:34;;;;;;;33.90;21.40;;;14.50;99.90;;;;;;5069407;28;20517;-55
2023/06/24 05:17:00;;;;;;;27.85;19.52;;;14.60;99.90;;;;;;5068932;28;20032;-56
2023/06/24 05:19:26;;;;;;;28.23;19.48;;;14.70;99.90;;;;;;5069141;28;20440;-54
2023/06/24 05:21:51;;;;;;;30.48;20.52;;;14.70;99.90;;;;;;5069338;28;20020;-54
2023/06/24 05:24:17;;;;;;;22.63;18.00;;;14.70;99.90;;;;;;5069161;28;20021;-55
2023/06/24 05:26:44;;;;;;;26.50;19.02;;;14.80;99.90;;;;;;5068740;28;20024;-55
2023/06/24 05:29:11;;;;;;;20.58;16.15;;;14.80;99.90;;;;;;5068843;28;20028;-55
2023/06/24 05:31:37;;;;;;;23.95;16.67;;;14.90;99.90;;;;;;5069061;28;20166;-55
2023/06/24 05:34:02;;;;;;;28.98;19.40;;;15.00;99.90;;;;;;5069339;28;20107;-54
2023/06/24 05:36:28;;;;;;;25.17;17.52;;;15.10;99.90;;;;;;5068958;28;20028;-54
2023/06/24 05:38:53;;;;;;;34.20;20.52;;;15.10;99.90;;;;;;5051418;28;20033;-56
2023/06/24 05:41:19;;;;;;;23.63;17.23;;;15.10;99.90;;;;;;5069289;28;20538;-55
2023/06/24 05:43:44;;;;;;;26.92;16.67;;;15.20;99.90;;;;;;5069316;28;20025;-55
2023/06/24 05:46:10;;;;;;;27.85;16.63;;;15.30;99.90;;;;;;5051009;28;20021;-55
2023/06/24 05:48:35;;;;;;;24.67;17.52;;;15.30;99.90;;;;;;5069297;28;20052;-54
2023/06/24 05:51:01;;;;;;;30.35;18.98;;;15.40;99.90;;;;;;5069305;28;20565;-56
2023/06/24 05:53:26;;;;;;;31.30;19.98;;;15.40;99.90;;;;;;5050990;28;20039;-56
2023/06/24 05:55:52;;;;;;;30.33;20.27;;;15.50;99.90;;;;;;5068422;28;20025;-55
2023/06/24 05:58:17;;;;;;;27.83;19.45;;;15.60;99.90;;;;;;5068959;28;20116;-55
2023/06/24 06:00:43;;;;;;;26.25;18.23;;;15.70;99.90;;;;;;5071417;28;20426;-55
2023/06/24 06:03:09;;;;;;;23.70;17.30;;;15.80;99.90;;;;;;5073076;28;20059;-56
2023/06/24 06:05:34;;;;;;;26.48;18.15;;;15.80;99.90;;;;;;5072168;28;20456;-56
2023/06/24 06:08:00;;;;;;;24.80;17.23;;;15.90;99.90;;;;;;5070396;28;20053;-55
2023/06/24 06:10:26;;;;;;;22.40;16.25;;;15.90;99.90;;;;;;5072032;28;20032;-55
2023/06/24 06:12:53;;;;;;;22.00;16.48;;;16.00;99.90;;;;;;5073729;28;20068;-55
2023/06/24 06:15:18;;;;;;;26.15;17.80;;;16.10;99.90;;;;;;5081281;28;20382;-56
2023/06/24 06:17:45;;;;;;;25.73;16.60;;;16.10;99.90;;;;;;5072365;28;20044;-55
2023/06/24 06:20:11;;;;;;;25.33;18.13;;;16.20;99.90;;;;;;5072353;28;20035;-56
2023/06/24 06:22:38;;;;;;;24.67;16.85;;;16.20;99.90;;;;;;5072440;28;20037;-55
2023/06/24 06:25:05;;;;;;;22.35;16.15;;;16.30;99.90;;;;;;5072456;28;20379;-55
2023/06/24 06:27:31;;;;;;;23.35;16.25;;;16.40;99.90;;;;;;5071854;28;20020;-56
2023/06/24 06:29:56;;;;;;;30.63;17.90;;;16.50;99.90;;;;;;5072176;28;20044;-56
2023/06/24 06:32:22;;;;;;;19.88;14.98;;;16.70;99.90;;;;;;5072070;28;20074;-56
2023/06/24 06:34:47;;;;;;;23.85;15.50;;;16.80;99.90;;;;;;5072303;28;20012;-56
2023/06/24 06:37:14;;;;;;;20.58;14.38;;;16.90;99.90;;;;;;5071484;28;20017;-56
2023/06/24 06:39:39;;;;;;;19.30;13.60;;;17.00;99.90;;;;;;5072068;28;20025;-56
2023/06/24 06:42:05;;;;;;;21.38;15.25;;;17.10;99.90;;;;;;5071961;28;20028;-56
2023/06/24 06:44:31;;;;;;;22.42;14.05;;;17.10;99.90;;;;;;5071987;28;20379;-55
2023/06/24 06:46:56;;;;;;;17.45;13.38;;;17.20;99.90;;;;;;5071843;28;20098;-56
2023/06/24 06:49:22;;;;;;;24.42;13.02;;;17.30;99.90;;;;;;5071813;28;20399;-56
2023/06/24 06:51:47;;;;;;;19.20;14.60;;;17.40;99.90;;;;;;5071348;28;20040;-56
2023/06/24 06:54:13;;;;;;;19.15;13.95;;;17.60;99.90;;;;;;5053255;28;20023;-56
2023/06/24 06:56:39;;;;;;;16.95;13.43;;;17.70;99.90;;;;;;5073376;28;20077;-56
2023/06/24 06:59:05;;;;;;;15.85;11.90;;;17.70;99.90;;;;;;5075773;28;20032;-56
2023/06/24 07:01:30;;;;;;;16.13;11.00;;;17.80;99.90;;;;;;5055656;28;20025;-56
2023/06/24 07:03:56;;;;;;;15.38;11.40;;;17.90;99.90;;;;;;5070957;28;20024;-56
2023/06/24 07:06:22;;;;;;;16.23;12.73;;;18.10;99.90;;;;;;5070292;28;20055;-56
2023/06/24 07:08:47;;;;;;;16.08;12.27;;;18.30;99.90;;;;;;5070965;28;20103;-56
2023/06/24 07:11:13;;;;;;;16.85;12.85;;;18.40;99.90;;;;;;5070242;28;20052;-56
2023/06/24 07:13:38;;;;;;;21.13;14.10;;;18.40;99.90;;;;;;5070316;28;20017;-56
2023/06/24 07:16:04;;;;;;;14.70;12.35;;;18.40;99.90;;;;;;5051858;28;20028;-56
2023/06/24 07:18:30;;;;;;;16.88;12.38;;;18.40;99.90;;;;;;5070670;28;20059;-56
2023/06/24 07:20:56;;;;;;;15.85;12.73;;;18.30;99.90;;;;;;5070367;28;20816;-56
2023/06/24 07:23:22;;;;;;;13.43;11.48;;;18.20;99.90;;;;;;5070347;28;20186;-57
2023/06/24 07:25:47;;;;;;;13.07;11.20;;;18.30;99.90;;;;;;5069928;28;20487;-57
2023/06/24 07:28:13;;;;;;;21.05;11.93;;;18.30;99.90;;;;;;5070246;28;20074;-57
2023/06/24 07:30:39;;;;;;;17.23;11.45;;;18.30;99.90;;;;;;5070787;28;20024;-57
2023/06/24 07:33:05;;;;;;;14.63;11.05;;;18.40;99.90;;;;;;5052904;28;20032;-57
2023/06/24 07:35:32;;;;;;;12.95;10.32;;;18.50;99.90;;;;;;5070585;28;20070;-57
2023/06/24 07:37:58;;;;;;;14.05;10.40;;;18.80;99.90;;;;;;5070494;28;20099;-57
2023/06/24 07:40:23;;;;;;;18.83;11.38;;;18.90;99.90;;;;;;5070497;28;20193;-57
2023/06/24 07:42:49;;;;;;;16.10;11.70;;;19.00;99.90;;;;;;5070199;28;20017;-58
2023/06/24 07:45:14;;;;;;;10.80;9.55;;;19.20;99.90;;;;;;5070414;28;20021;-57
2023/06/24 07:47:40;;;;;;;15.02;10.18;;;19.40;99.90;;;;;;5068521;28;20031;-57
2023/06/24 07:50:06;;;;;;;11.75;9.27;;;19.40;99.90;;;;;;5070153;28;20077;-57
2023/06/24 07:52:31;;;;;;;11.32;9.63;;;19.70;99.90;;;;;;5068946;28;20272;-57
2023/06/24 07:54:57;;;;;;;14.13;9.20;;;19.80;99.90;;;;;;5068815;28;20132;-58
2023/06/24 07:57:22;;;;;;;12.95;9.35;;;20.00;99.90;;;;;;5068036;28;20037;-58
2023/06/24 07:59:48;;;;;;;10.10;9.05;;;20.20;99.90;;;;;;5069823;28;20036;-58
2023/06/24 08:02:14;;;;;;;9.75;8.65;;;20.30;99.90;;;;;;5067568;28;20068;-58
2023/06/24 08:04:39;;;;;;;12.18;9.07;;;20.20;99.90;;;;;;5068723;28;20051;-59
2023/06/24 08:07:06;;;;;;;11.80;8.70;;;20.30;99.90;;;;;;5069440;28;20060;-59
2023/06/24 08:09:31;;;;;;;9.25;7.72;;;20.40;99.90;;;;;;5050159;28;20029;-58
2023/06/24 08:11:57;;;;;;;10.77;7.75;;;20.60;99.90;;;;;;5063438;28;20039;-59
2023/06/24 08:14:22;;;;;;;8.80;6.32;;;21.10;99.90;;;;;;5070432;28;20414;-59
2023/06/24 08:16:48;;;;;;;12.10;6.13;;;22.00;99.90;;;;;;5069599;28;20036;-57
2023/06/24 08:19:14;;;;;;;6.65;5.63;;;23.00;99.90;;;;;;5083223;28;20029;-56
2023/06/24 08:21:40;;;;;;;7.93;6.78;;;23.60;99.90;;;;;;5069632;28;20021;-56
2023/06/24 08:24:06;;;;;;;6.63;5.43;;;23.70;99.90;;;;;;5069670;28;20047;-56
2023/06/24 08:26:32;;;;;;;7.63;5.32;;;24.20;99.90;;;;;;5069599;28;20060;-56
2023/06/24 08:28:59;;;;;;;7.35;5.53;;;24.90;99.90;;;;;;5069472;28;20099;-56
2023/06/24 08:31:25;;;;;;;7.35;5.13;;;25.50;99.10;;;;;;5069692;28;20030;-56
2023/06/24 08:33:54;;;;;;;7.53;5.13;;;26.60;95.60;;;;;;5069724;28;20024;-57
2023/06/24 08:36:23;;;;;;;5.73;4.97;;;27.40;93.80;;;;;;5069311;28;20032;-57
2023/06/24 08:38:49;;;;;;;6.57;4.43;;;27.70;92.30;;;;;;5069872;28;20024;-57
2023/06/24 08:41:15;;;;;;;7.07;3.88;;;27.60;90.30;;;;;;5069585;28;20025;-57
2023/06/24 08:43:42;;;;;;;5.20;3.90;;;28.30;89.00;;;;;;5069865;28;20021;-57
2023/06/24 08:46:08;;;;;;;6.70;4.55;;;29.20;87.20;;;;;;5069253;28;20536;-57
2023/06/24 08:48:39;;;;;;;8.65;4.72;;;29.90;83.60;;;;;;5069694;28;20029;-57
2023/06/24 08:53:20;;;;;;;5.03;4.10;;;29.90;80.70;;;;;;5023759;28;20311;-58
2023/06/24 08:55:49;;;;;;;4.93;3.63;;;30.90;78.40;;;;;;5023224;28;20042;-57
2023/06/24 08:58:15;;;;;;;6.80;5.40;;;31.50;76.20;;;;;;5005827;28;20144;-58
2023/06/24 09:00:42;;;;;;;6.57;3.78;;;31.90;75.70;;;;;;5023637;28;20656;-58
2023/06/24 09:03:08;;;;;;;4.63;3.60;;;31.70;71.70;;;;;;5026804;28;20029;-58
2023/06/24 09:05:33;;;;;;;4.07;3.65;;;32.00;67.80;;;;;;5026329;28;20533;-58
2023/06/24 09:08:02;;;;;;;4.57;3.72;;;31.80;68.90;;;;;;5023415;28;20076;-58
2023/06/24 09:10:32;;;;;;;6.00;3.78;;;31.60;69.00;;;;;;5022903;28;20379;-58
2023/06/24 09:12:59;;;;;;;3.92;3.53;;;32.20;71.20;;;;;;5005076;28;20024;-58
2023/06/24 09:15:29;;;;;;;5.45;3.97;;;32.70;70.90;;;;;;5004748;28;20017;-59
2023/06/24 09:17:54;;;;;;;6.35;4.05;;;32.60;70.20;;;;;;5022591;28;20045;-57
2023/06/24 09:20:22;;;;;;;6.75;3.97;;;33.00;68.00;;;;;;5022787;28;20100;-59
2023/06/24 09:22:48;;;;;;;4.47;3.58;;;33.20;68.50;;;;;;5004925;28;20470;-59
2023/06/24 09:25:20;;;;;;;3.78;3.38;;;33.40;65.80;;;;;;5004799;28;20037;-58
2023/06/24 09:27:52;;;;;;;3.33;3.03;;;33.60;64.30;;;;;;5022093;28;20028;-59
2023/06/24 09:30:20;;;;;;;5.22;3.55;;;33.20;64.40;;;;;;5022569;28;20032;-58
2023/06/24 09:32:49;;;;;;;3.80;3.20;;;33.50;64.50;;;;;;5008985;28;20029;-58
2023/06/24 09:35:19;;;;;;;6.45;3.85;;;33.80;63.70;;;;;;5028875;28;20037;-59
2023/06/24 09:37:56;;;;;;;4.95;3.83;;;34.30;63.10;;;;;;5022045;28;20033;-59
2023/06/24 09:40:22;;;;;;;8.48;3.70;;;34.20;65.00;;;;;;5022525;28;20057;-59
2023/06/24 09:42:53;;;;;;;5.70;3.78;;;34.10;61.60;;;;;;5022270;28;20386;-59
2023/06/24 09:45:27;;;;;;;4.93;3.47;;;33.70;62.20;;;;;;5022311;28;20427;-58
2023/06/24 09:47:54;;;;;;;5.38;3.53;;;33.50;62.60;;;;;;5019959;28;20054;-57
2023/06/24 09:50:20;;;;;;;4.75;3.38;;;33.50;62.70;;;;;;5004348;28;20100;-58
2023/06/24 09:52:47;;;;;;;3.90;3.47;;;33.90;63.10;;;;;;5022134;28;20034;-58
2023/06/24 09:55:17;;;;;;;3.55;3.10;;;34.10;61.90;;;;;;5022132;28;20026;-59
2023/06/24 09:57:46;;;;;;;4.43;3.05;;;34.80;61.30;;;;;;5022032;28;20021;-58
2023/06/24 10:00:17;;;;;;;3.97;3.53;;;34.70;62.40;;;;;;5020321;28;20525;-58
2023/06/24 10:02:47;;;;;;;4.25;3.85;;;34.90;60.30;;;;;;5007162;28;20114;-59
2023/06/24 10:05:15;;;;;;;4.75;3.95;;;34.60;58.10;;;;;;5010495;28;20026;-58
2023/06/24 10:07:42;;;;;;;4.07;3.67;;;34.60;59.20;;;;;;5008325;28;20113;-59
2023/06/24 10:10:09;;;;;;;5.25;3.58;;;34.60;59.70;;;;;;5008788;28;20594;-58
2023/06/24 10:12:35;;;;;;;4.75;3.65;;;34.70;60.90;;;;;;5016138;28;20025;-59
2023/06/24 10:15:05;;;;;;;4.13;3.60;;;35.10;59.70;;;;;;5008948;28;20032;-59
2023/06/24 10:17:34;;;;;;;4.72;3.35;;;35.20;56.90;;;;;;5005647;28;20042;-59
2023/06/24 10:20:04;;;;;;;5.38;3.58;;;34.90;58.30;;;;;;5008965;28;20126;-59
2023/06/24 10:22:31;;;;;;;5.28;3.83;;;34.80;57.40;;;;;;5006251;28;20030;-59
2023/06/24 10:25:00;;;;;;;5.10;3.45;;;34.80;57.30;;;;;;4990817;28;20402;-59
2023/06/24 10:27:27;;;;;;;;;;;34.60;59.50;;;;;;5008402;28;20026;-59
2023/06/24 10:29:56;;;;;;;4.80;3.55;;;34.90;59.60;;;;;;4990958;28;20374;-58
2023/06/24 10:32:22;;;;;;;4.87;4.37;;;35.40;57.90;;;;;;5010881;28;20394;-59
2023/06/24 10:34:55;;;;;;;4.90;3.70;;;35.70;56.90;;;;;;5016981;28;20257;-60
2023/06/24 10:37:24;;;;;;;6.63;3.85;;;35.90;57.00;;;;;;5008688;28;20018;-59
2023/06/24 10:40:01;;;;;;;;;;;35.70;58.60;;;;;;5006244;28;20025;-59
2023/06/24 10:42:35;;;;;;;4.05;3.65;;;35.90;57.30;;;;;;5008284;28;20515;-60
2023/06/24 10:45:02;;;;;;;4.78;3.53;;;35.60;56.20;;;;;;4990937;28;20030;-58
2023/06/24 10:47:29;;;;;;;7.07;4.20;;;35.40;57.80;;;;;;5015060;28;20379;-59
2023/06/24 10:49:54;;;;;;;7.53;3.15;;;35.50;55.50;;;;;;5027955;28;20657;-59
2023/06/24 10:52:21;;;;;;;3.55;3.17;;;35.40;58.70;;;;;;5010463;28;20051;-59
2023/06/24 10:54:48;;;;;;;5.72;3.72;;;35.80;58.40;;;;;;5028186;28;20500;-58
2023/06/24 10:57:14;;;;;;;4.30;3.55;;;35.50;57.80;;;;;;5027791;28;20033;-58
2023/06/24 10:59:47;;;;;;;6.38;3.55;;;35.80;56.90;;;;;;5028122;28;20028;-59
2023/06/24 11:02:18;;;;;;;4.10;3.58;;;36.10;58.10;;;;;;5036098;28;20034;-57
2023/06/24 11:04:51;;;;;;;4.35;3.17;;;35.80;58.30;;;;;;5111808;28;20027;-58
2023/06/24 11:07:21;;;;;;;3.78;3.38;;;35.90;57.40;;;;;;5093046;28;20043;-57
2023/06/24 11:09:51;;;;;;;3.58;2.80;;;36.50;57.10;;;;;;5111896;28;20130;-57
2023/06/24 11:12:18;;;;;;;3.78;3.30;;;36.50;56.50;;;;;;5111555;28;20043;-57
2023/06/24 11:14:43;;;;;;;3.95;3.50;;;36.20;55.80;;;;;;5092405;28;20395;-57
2023/06/24 11:17:09;;;;;;;4.35;3.40;;;36.60;54.60;;;;;;5065808;28;20025;-57
2023/06/24 11:19:39;;;;;;;5.72;3.55;;;36.10;56.50;;;;;;5027371;28;20014;-57
2023/06/24 11:22:05;;;;;;;4.45;3.65;;;36.30;57.10;;;;;;5027723;28;20367;-57
2023/06/24 11:24:30;;;;;;;3.45;3.10;;;36.60;54.40;;;;;;5027953;28;20041;-57
2023/06/24 11:26:56;;;;;;;3.83;3.10;;;36.40;56.00;;;;;;5009549;28;20026;-57
2023/06/24 11:29:28;;;;;;;4.82;3.22;;;36.30;55.40;;;;;;5008576;28;20096;-57
2023/06/24 11:31:54;;;;;;;3.00;2.70;;;36.60;53.90;;;;;;5007573;28;20109;-59
2023/06/24 11:34:21;;;;;;;5.22;3.40;;;36.50;53.90;;;;;;5007341;28;20097;-59
2023/06/24 11:36:48;;;;;;;5.60;3.03;;;36.60;54.50;;;;;;4989536;28;20382;-58
2023/06/24 11:39:23;;;;;;;5.10;3.10;;;36.70;54.80;;;;;;5007606;28;20037;-58
2023/06/24 11:41:49;;;;;;;6.63;3.35;;;36.60;53.80;;;;;;5005842;28;20022;-58
2023/06/24 11:44:14;;;;;;;5.97;3.03;;;36.60;54.20;;;;;;5007363;28;20057;-59
2023/06/24 11:46:40;;;;;;;4.10;3.53;;;36.30;55.50;;;;;;4989422;28;20036;-58
2023/06/24 11:49:07;;;;;;;4.53;2.90;;;36.30;55.10;;;;;;4989642;28;20030;-58
2023/06/24 11:51:34;;;;;;;3.58;2.92;;;36.50;57.30;;;;;;5007433;28;20030;-58
2023/06/24 11:54:01;;;;;;;5.63;3.42;;;36.40;55.70;;;;;;5007363;28;20033;-58
2023/06/24 11:56:36;;;;;;;4.38;3.60;;;36.30;55.70;;;;;;5007401;28;20478;-60
2023/06/24 11:59:05;;;;;;;5.43;3.47;;;36.00;55.30;;;;;;5007802;28;20022;-58
2023/06/24 12:01:32;;;;;;;5.55;3.40;;;35.30;55.30;;;;;;5008311;28;20390;-58
2023/06/24 12:04:00;;;;;;;4.32;3.60;;;34.90;56.90;;;;;;5007751;28;20029;-58
2023/06/24 12:06:25;;;;;;;7.50;3.78;;;34.70;57.10;;;;;;5007293;28;20022;-58
2023/06/24 12:08:51;;;;;;;6.18;3.80;;;34.20;58.00;;;;;;4990024;28;20033;-58
2023/06/24 12:11:16;;;;;;;4.95;3.60;;;33.90;61.30;;;;;;4989850;28;20026;-58
2023/06/24 12:13:42;;;;;;;4.57;3.95;;;33.40;60.40;;;;;;4989727;28;20030;-58
2023/06/24 12:16:07;;;;;;;4.30;3.90;;;33.10;61.70;;;;;;5006576;28;20530;-58
2023/06/24 12:18:33;;;;;;;7.38;4.47;;;33.00;62.60;;;;;;5006930;28;20030;-58
2023/06/24 12:20:58;;;;;;;6.47;3.97;;;33.00;60.30;;;;;;5007542;28;20412;-58
2023/06/24 12:23:24;;;;;;;6.00;3.97;;;32.90;62.90;;;;;;5007637;28;20031;-58
2023/06/24 12:25:49;;;;;;;6.30;4.35;;;32.50;62.00;;;;;;4989233;28;20022;-58
2023/06/24 12:28:15;;;;;;;4.82;4.15;;;32.20;61.00;;;;;;5006913;28;20045;-57
2023/06/24 12:30:40;;;;;;;6.75;4.22;;;31.30;64.60;;;;;;5006996;28;20057;-58
2023/06/24 12:33:08;;;;;;;5.45;4.35;;;30.70;65.80;;;;;;5007687;28;20117;-57
2023/06/24 12:35:34;;;;;;;8.80;4.60;;;30.10;65.00;;;;;;5007269;28;20095;-57
2023/06/24 12:37:59;;;;;;;3.95;3.60;;;30.20;66.20;;;;;;5006981;28;20400;-58